Time;durP1;ratioP1;P1;durP2;ratioP2;P2;SDS_P1;SDS_P2;PMS_P1;PMS_P2;Temp;Humidity;BMP_temperature;BMP_pressure;BME280_temperature;BME280_humidity;BME280_pressure;Samples;Min_cycle;Max_cycle;Signal;HPM_P1;HPM_P2
2023/12/30 11:02:37;;;;;;;2.53;1.42;;;;;;;16.36;40.03;95097.38;6182802;23;20029;-85
2023/12/30 12:34:00;;;;;;;3.15;2.35;;;;;;;15.74;41.32;94970.59;6184351;23;20021;-87
2023/12/30 12:36:25;;;;;;;2.22;2.03;;;;;;;15.71;42.31;94971.03;6138470;23;20083;-87
2023/12/30 12:38:51;;;;;;;2.40;2.10;;;;;;;15.76;41.83;94968.56;6187787;23;20000;-89
2023/12/30 12:41:17;;;;;;;2.33;2.13;;;;;;;15.82;41.17;94983.44;6163403;23;20095;-88
2023/12/30 12:43:42;;;;;;;3.08;2.20;;;;;;;15.86;41.31;94963.66;6186804;23;20008;-87
2023/12/30 12:51:11;;;;;;;2.53;2.22;;;;;;;15.66;41.23;94968.22;6212062;23;20013;-88
2023/12/30 12:53:36;;;;;;;3.13;2.15;;;;;;;15.87;41.05;94967.06;6213410;23;20004;-88
2023/12/30 12:56:04;;;;;;;2.63;2.22;;;;;;;15.68;40.91;94953.88;6207841;23;20058;-88
2023/12/30 13:00:55;;;;;;;2.17;1.92;;;;;;;15.60;40.60;94949.72;6189991;23;20025;-88
2023/12/30 13:03:20;;;;;;;2.55;2.17;;;;;;;15.46;40.44;94950.84;6187052;23;20016;-88
2023/12/30 13:05:48;;;;;;;2.50;2.10;;;;;;;15.80;40.59;94954.00;6186813;23;20005;-87
2023/12/30 13:08:13;;;;;;;4.18;1.90;;;;;;;15.63;41.20;94940.59;6162317;23;20009;-87
2023/12/30 13:13:06;;;;;;;2.72;2.20;;;;;;;15.60;41.15;94944.47;6206082;23;20059;-88
2023/12/30 13:15:32;;;;;;;2.10;1.88;;;;;;;15.64;40.16;94937.78;6188310;23;20005;-88
2023/12/30 13:18:04;;;;;;;2.88;2.17;;;;;;;15.75;40.54;94930.25;6178712;23;20009;-89
2023/12/30 13:22:57;;;;;;;2.40;2.20;;;;;;;15.87;41.54;94939.00;6212459;23;20020;-88
2023/12/30 13:25:23;;;;;;;2.63;2.00;;;;;;;16.06;40.77;94931.94;6163754;23;20016;-88
2023/12/30 13:27:49;;;;;;;2.50;2.20;;;;;;;16.00;40.37;94931.00;6138847;23;20071;-88
2023/12/30 13:32:41;;;;;;;2.75;2.08;;;;;;;15.87;40.92;94928.50;6180414;23;20028;-87
2023/12/30 13:35:06;;;;;;;3.40;2.63;;;;;;;15.77;41.70;94923.78;6133148;23;20012;-89
2023/12/30 13:37:38;;;;;;;2.13;1.92;;;;;;;15.70;41.62;94927.44;6133274;23;20008;-87
2023/12/30 13:40:12;;;;;;;2.58;2.20;;;;;;;15.72;41.33;94933.28;6158258;23;20028;-87
2023/12/30 13:42:37;;;;;;;2.40;2.10;;;;;;;15.63;41.33;94927.50;6135341;23;20009;-88
2023/12/30 13:45:04;;;;;;;3.40;2.42;;;;;;;15.53;42.28;94928.00;6133294;23;20009;-87
2023/12/30 13:57:40;;;;;;;2.83;2.40;;;;;;;14.96;42.08;94911.50;6212913;23;20043;-88
2023/12/30 14:00:07;;;;;;;3.83;2.30;;;;;;;14.86;42.17;94904.13;6163616;23;20009;-88
2023/12/30 14:02:38;;;;;;;2.85;2.40;;;;;;;14.74;42.82;94911.88;6187612;23;20011;-88
2023/12/30 14:05:06;;;;;;;3.20;2.10;;;;;;;14.92;42.74;94907.72;6187677;23;20013;-87
2023/12/30 14:07:32;;;;;;;5.47;2.75;;;;;;;14.65;42.95;94900.03;6162620;23;20418;-88
2023/12/30 14:10:06;;;;;;;2.95;2.45;;;;;;;14.80;43.29;94911.00;6208643;22;20019;-88
2023/12/30 14:12:32;;;;;;;2.92;2.60;;;;;;;14.94;42.98;94909.09;6164382;23;20082;-87
2023/12/30 14:15:05;;;;;;;2.85;2.22;;;;;;;14.54;43.74;94898.84;6187837;23;20001;-88
2023/12/30 14:17:33;;;;;;;3.28;2.40;;;;;;;14.45;44.19;94903.53;6187580;23;20012;-88
2023/12/30 14:22:34;;;;;;;2.75;2.30;;;;;;;14.27;44.58;94909.44;6212948;23;20025;-87
2023/12/30 14:25:01;;;;;;;3.10;2.60;;;;;;;14.13;44.58;94894.81;6162694;23;20014;-88
2023/12/30 14:27:27;;;;;;;3.72;2.47;;;;;;;14.12;45.40;94905.50;6187209;23;20015;-87
2023/12/30 14:29:58;;;;;;;2.70;2.47;;;;;;;14.01;45.12;94907.75;6188381;23;20028;-87
2023/12/30 14:32:24;;;;;;;3.05;2.50;;;;;;;13.95;44.72;94897.28;6164998;23;20065;-87
2023/12/30 14:34:50;;;;;;;2.92;2.40;;;;;;;14.06;44.05;94897.44;6164757;23;20004;-86
2023/12/30 14:39:42;;;;;;;3.55;2.40;;;;;;;13.93;44.93;94887.03;6214304;23;20017;-86
2023/12/30 14:42:08;;;;;;;3.60;2.78;;;;;;;13.98;44.88;94889.84;6188853;23;20012;-86
2023/12/30 14:44:33;;;;;;;2.70;2.50;;;;;;;14.01;44.45;94896.47;6188130;23;20005;-86
2023/12/30 14:47:00;;;;;;;2.45;2.25;;;;;;;13.96;44.76;94899.72;6164153;23;20012;-87
2023/12/30 14:54:37;;;;;;;4.43;2.20;;;;;;;13.97;44.18;94897.88;6208509;23;20020;-87
2023/12/30 14:57:06;;;;;;;2.42;2.22;;;;;;;13.89;44.49;94891.06;6163829;23;20032;-87
2023/12/30 15:04:32;;;;;;;2.60;2.40;;;;;;;13.57;45.74;94872.66;6212856;23;20031;-88
2023/12/30 15:07:00;;;;;;;2.53;2.33;;;;;;;13.46;46.11;94878.50;6164233;23;20012;-89
2023/12/30 15:14:26;;;;;;;2.88;2.00;;;;;;;13.21;44.99;94873.91;6208542;23;20280;-87
2023/12/30 15:16:51;;;;;;;2.78;2.10;;;;;;;12.91;45.96;94869.06;6219522;23;20000;-87
2023/12/30 15:24:28;;;;;;;2.90;2.03;;;;;;;13.03;45.45;94871.88;6184784;23;20025;-88
2023/12/30 15:26:53;;;;;;;3.47;2.40;;;;;;;12.96;45.67;94872.88;6110610;23;20063;-87
2023/12/30 15:29:19;;;;;;;3.47;2.85;;;;;;;12.60;46.53;94863.63;6159153;23;20013;-87
2023/12/30 15:31:44;;;;;;;3.33;2.60;;;;;;;12.73;46.39;94868.84;6159556;23;20083;-87
2023/12/30 15:34:12;;;;;;;4.47;2.70;;;;;;;12.66;46.16;94860.22;6159273;23;20071;-88
2023/12/30 15:36:38;;;;;;;4.25;2.50;;;;;;;12.37;47.10;94864.78;6134926;23;20035;-87
2023/12/30 16:41:55;;;;;;;2.67;1.50;;;;;;;10.41;50.48;94864.75;6187768;23;20088;-89
2023/12/30 16:44:21;;;;;;;1.98;1.52;;;;;;;10.49;49.99;94862.03;6162138;23;20051;-88
2023/12/30 16:46:46;;;;;;;2.45;1.55;;;;;;;10.41;50.69;94863.94;6164550;23;20004;-89
2023/12/30 16:54:28;;;;;;;2.65;1.80;;;;;;;9.94;50.80;94848.63;6213647;23;20009;-88
2023/12/30 16:56:53;;;;;;;2.75;1.50;;;;;;;10.22;49.87;94854.91;6189631;23;20016;-88
2023/12/30 17:19:50;;;;;;;2.25;1.67;;;;;;;9.56;51.43;94838.38;6213636;23;20017;-88
2023/12/30 17:22:16;;;;;;;2.63;1.73;;;;;;;9.91;50.83;94850.78;6164840;23;20000;-88
2023/12/30 17:24:41;;;;;;;2.78;1.45;;;;;;;9.75;50.84;94855.22;6190096;23;20008;-89
2023/12/30 23:16:45;;;;;;;0.93;0.70;;;;;;;7.85;49.54;94600.63;6184778;23;20029;-88
